Time;durP1;ratioP1;P1;durP2;ratioP2;P2;SDS_P1;SDS_P2;PMS_P1;PMS_P2;Temp;Humidity;BMP_temperature;BMP_pressure;BME280_temperature;BME280_humidity;BME280_pressure;Samples;Min_cycle;Max_cycle;Signal;HPM_P1;HPM_P2
2021/06/27 00:00:23;;;;;;;5.38;4.88;;;22.00;71.00;;;;;;4949455;29;20162;-80
2021/06/27 00:02:49;;;;;;;5.50;5.00;;;22.00;71.00;;;;;;4949545;29;20657;-80
2021/06/27 00:05:18;;;;;;;5.65;4.80;;;22.00;71.00;;;;;;4948202;29;20170;-81
2021/06/27 00:07:50;;;;;;;6.22;5.07;;;22.00;71.00;;;;;;4947790;29;20146;-81
2021/06/27 00:10:18;;;;;;;5.70;5.10;;;22.00;71.10;;;;;;4901249;29;20182;-80
2021/06/27 00:12:44;;;;;;;6.15;5.55;;;22.00;71.00;;;;;;4947352;29;20178;-80
2021/06/27 00:15:14;;;;;;;5.70;5.13;;;22.00;71.10;;;;;;4932591;29;20174;-81
2021/06/27 00:17:44;;;;;;;5.53;5.03;;;22.00;71.10;;;;;;4932037;29;20221;-80
2021/06/27 00:20:13;;;;;;;6.07;5.47;;;22.00;71.00;;;;;;4915490;29;20213;-80
2021/06/27 00:22:42;;;;;;;5.55;5.05;;;22.00;71.10;;;;;;4948067;29;20162;-80
2021/06/27 00:25:12;;;;;;;5.60;5.10;;;22.00;71.00;;;;;;4915683;29;20589;-80
2021/06/27 00:27:44;;;;;;;5.00;4.50;;;22.00;71.20;;;;;;4931365;29;20278;-80
2021/06/27 00:30:15;;;;;;;5.60;5.10;;;22.00;71.30;;;;;;4917857;29;20226;-81
2021/06/27 00:32:46;;;;;;;5.50;4.90;;;22.00;71.20;;;;;;4935537;29;20570;-80
2021/06/27 00:35:16;;;;;;;5.55;4.93;;;21.90;71.50;;;;;;4934819;29;20190;-81
2021/06/27 00:37:46;;;;;;;6.10;5.50;;;22.00;71.20;;;;;;4934958;29;20190;-81
2021/06/27 00:40:17;;;;;;;5.57;5.07;;;22.00;71.20;;;;;;4919752;29;20213;-80
2021/06/27 00:42:47;;;;;;;5.82;5.30;;;22.00;71.20;;;;;;4935040;29;20727;-80
2021/06/27 00:45:19;;;;;;;5.43;4.93;;;21.90;71.30;;;;;;4919628;29;20197;-80
2021/06/27 00:47:45;;;;;;;5.28;4.78;;;21.90;71.30;;;;;;4919587;29;20249;-80
2021/06/27 00:50:19;;;;;;;5.63;5.03;;;21.90;71.30;;;;;;4951574;29;20166;-80
2021/06/27 00:52:48;;;;;;;5.97;5.38;;;21.90;71.30;;;;;;4934996;29;20178;-80
2021/06/27 00:55:18;;;;;;;5.47;4.95;;;21.90;71.30;;;;;;4934792;29;20193;-80
2021/06/27 00:57:49;;;;;;;5.28;4.78;;;22.00;71.40;;;;;;4919443;29;20186;-81
2021/06/27 01:00:20;;;;;;;5.40;4.90;;;21.90;71.30;;;;;;4918696;29;20190;-81
2021/06/27 01:02:46;;;;;;;5.30;4.80;;;21.90;71.40;;;;;;4950514;29;20158;-80
2021/06/27 01:05:16;;;;;;;5.68;5.10;;;21.90;71.30;;;;;;4951976;29;20158;-81
2021/06/27 01:07:46;;;;;;;5.82;5.22;;;22.00;71.40;;;;;;4935173;29;20214;-81
2021/06/27 01:10:15;;;;;;;5.30;4.80;;;21.90;71.30;;;;;;4919529;29;20249;-80
2021/06/27 01:12:43;;;;;;;5.18;4.68;;;21.90;71.30;;;;;;4919038;29;20182;-81
2021/06/27 01:15:11;;;;;;;5.40;4.90;;;21.90;71.30;;;;;;4917855;29;20229;-81
2021/06/27 01:17:43;;;;;;;5.50;5.00;;;22.00;71.40;;;;;;4951158;29;20176;-80
2021/06/27 01:20:16;;;;;;;5.38;4.88;;;22.00;71.40;;;;;;4918557;29;20189;-80
2021/06/27 01:22:49;;;;;;;5.63;5.03;;;21.90;71.30;;;;;;4903096;29;20182;-80
2021/06/27 01:25:21;;;;;;;5.55;5.03;;;21.90;71.40;;;;;;4918207;29;20593;-80
2021/06/27 01:27:51;;;;;;;5.88;5.28;;;21.90;71.30;;;;;;4934027;29;20182;-81
2021/06/27 01:30:20;;;;;;;5.43;4.93;;;21.90;71.30;;;;;;4918183;29;20319;-81
2021/06/27 01:32:49;;;;;;;5.80;5.20;;;21.90;71.30;;;;;;4918643;29;20182;-80
2021/06/27 01:35:21;;;;;;;5.55;4.97;;;21.90;71.30;;;;;;4933993;29;20276;-80
2021/06/27 01:37:52;;;;;;;5.78;4.88;;;21.90;71.40;;;;;;4918307;29;20269;-80
2021/06/27 01:40:22;;;;;;;6.45;4.90;;;21.90;71.40;;;;;;4934227;29;20186;-80
2021/06/27 01:42:52;;;;;;;5.45;4.90;;;21.90;71.40;;;;;;4933569;29;20182;-81
2021/06/27 01:45:23;;;;;;;5.70;5.00;;;21.90;71.50;;;;;;4918320;29;20653;-80
2021/06/27 01:48:01;;;;;;;5.28;4.78;;;21.80;71.40;;;;;;4950048;29;20154;-81
2021/06/27 01:50:34;;;;;;;5.30;4.80;;;21.90;71.50;;;;;;4919053;29;20593;-81
2021/06/27 01:53:04;;;;;;;5.53;5.03;;;21.90;71.40;;;;;;4917251;29;20194;-80
2021/06/27 01:55:33;;;;;;;5.15;4.65;;;21.90;71.40;;;;;;4933897;29;20264;-81
2021/06/27 01:58:04;;;;;;;5.38;4.88;;;21.90;71.30;;;;;;4917789;29;20190;-80
2021/06/27 02:00:31;;;;;;;5.43;4.93;;;21.90;71.40;;;;;;4917627;29;20206;-80
2021/06/27 02:03:01;;;;;;;5.40;4.90;;;21.90;71.40;;;;;;4934308;29;20166;-80
2021/06/27 02:05:31;;;;;;;5.63;5.05;;;21.80;71.40;;;;;;4933388;29;20186;-81
2021/06/27 02:08:02;;;;;;;5.65;5.13;;;21.90;71.40;;;;;;4902506;29;20185;-80
2021/06/27 02:10:34;;;;;;;5.25;4.72;;;21.80;71.40;;;;;;4917867;29;20194;-81
2021/06/27 02:13:04;;;;;;;5.70;5.10;;;21.90;71.40;;;;;;4932616;29;20205;-80
2021/06/27 02:15:34;;;;;;;5.53;5.03;;;21.90;71.50;;;;;;4933423;29;20186;-80
2021/06/27 02:18:27;;;;;;;5.63;5.10;;;21.80;71.50;;;;;;4933727;29;20194;-80
2021/06/27 02:21:03;;;;;;;5.20;4.70;;;21.90;71.40;;;;;;4935575;29;20186;-80
2021/06/27 02:23:36;;;;;;;5.53;5.03;;;21.90;71.60;;;;;;4933461;29;20190;-81
2021/06/27 02:26:04;;;;;;;5.35;4.85;;;21.80;71.80;;;;;;4917327;29;20206;-80
2021/06/27 02:28:31;;;;;;;5.97;5.38;;;21.80;71.60;;;;;;4917406;29;20198;-80
2021/06/27 02:31:00;;;;;;;5.68;5.13;;;21.80;71.60;;;;;;4896002;29;20279;-81
2021/06/27 02:33:27;;;;;;;5.50;5.00;;;21.80;71.40;;;;;;4910444;29;20203;-80
2021/06/27 02:35:54;;;;;;;5.38;4.88;;;21.90;71.60;;;;;;4879461;29;20651;-80
2021/06/27 02:38:28;;;;;;;5.65;5.15;;;21.80;71.60;;;;;;4912701;29;20188;-80
2021/06/27 02:41:00;;;;;;;5.78;5.20;;;21.80;71.50;;;;;;4910997;29;20231;-81
2021/06/27 02:43:27;;;;;;;5.80;5.20;;;21.80;71.50;;;;;;4894783;29;20738;-80
2021/06/27 02:45:55;;;;;;;5.35;4.85;;;21.80;71.50;;;;;;4895462;29;20198;-81
2021/06/27 02:48:21;;;;;;;5.13;4.63;;;21.80;71.50;;;;;;4895454;29;20195;-80
2021/06/27 02:50:49;;;;;;;5.70;5.13;;;21.80;71.50;;;;;;4895481;29;20191;-80
2021/06/27 02:53:16;;;;;;;5.70;5.20;;;21.80;71.50;;;;;;4895109;29;20151;-81
2021/06/27 02:55:43;;;;;;;5.07;4.57;;;21.80;71.60;;;;;;4894933;29;20210;-81
2021/06/27 02:58:10;;;;;;;5.53;5.03;;;21.80;71.50;;;;;;4894919;29;20194;-80
2021/06/27 03:00:41;;;;;;;5.50;5.00;;;21.80;71.40;;;;;;4879154;29;20655;-81
2021/06/27 03:03:11;;;;;;;5.95;5.35;;;21.80;71.40;;;;;;4909930;29;20195;-81
2021/06/27 03:05:42;;;;;;;5.32;4.82;;;21.80;71.40;;;;;;4894871;29;20187;-81
2021/06/27 03:08:11;;;;;;;5.60;4.97;;;21.80;71.40;;;;;;4910206;29;20197;-80
2021/06/27 03:10:45;;;;;;;5.43;4.93;;;21.90;71.40;;;;;;4894362;29;20690;-81
2021/06/27 03:13:12;;;;;;;5.72;5.00;;;21.90;71.50;;;;;;4909527;29;20193;-81
2021/06/27 03:15:45;;;;;;;5.68;5.07;;;21.80;71.30;;;;;;4910892;29;20182;-81
2021/06/27 03:18:16;;;;;;;5.55;5.05;;;21.80;71.30;;;;;;4894033;29;20191;-81
2021/06/27 03:20:43;;;;;;;5.20;4.70;;;21.80;71.30;;;;;;4910071;29;20195;-81
2021/06/27 03:23:10;;;;;;;5.90;5.35;;;21.80;71.30;;;;;;4910983;29;20251;-81
2021/06/27 03:25:36;;;;;;;5.28;4.78;;;21.80;71.20;;;;;;4910484;29;20178;-81
2021/06/27 03:28:06;;;;;;;5.30;4.80;;;21.80;71.10;;;;;;4910817;29;20182;-81
2021/06/27 03:30:37;;;;;;;5.32;4.82;;;21.90;71.20;;;;;;4912520;29;20320;-81
2021/06/27 03:33:08;;;;;;;5.40;4.90;;;21.90;71.20;;;;;;4915801;29;20193;-81
2021/06/27 03:35:34;;;;;;;5.22;4.72;;;21.90;71.00;;;;;;4916071;29;20269;-81
2021/06/27 03:40:41;;;;;;;5.15;4.65;;;21.90;70.90;;;;;;4949370;29;20164;-80
2021/06/27 03:43:07;;;;;;;5.57;5.07;;;21.90;71.00;;;;;;4948822;29;20241;-81
2021/06/27 03:45:38;;;;;;;5.60;5.07;;;21.90;71.00;;;;;;4931791;29;20170;-80
2021/06/27 03:48:05;;;;;;;5.40;4.90;;;21.90;71.00;;;;;;4915721;29;20190;-81
2021/06/27 03:50:31;;;;;;;5.20;4.70;;;21.90;71.00;;;;;;4948413;29;20181;-81
2021/06/27 03:53:03;;;;;;;5.28;4.78;;;21.80;71.00;;;;;;4947994;29;20245;-80
2021/06/27 03:55:33;;;;;;;5.53;5.03;;;21.80;71.00;;;;;;4915093;29;20210;-81
2021/06/27 03:57:59;;;;;;;5.50;4.82;;;21.90;71.00;;;;;;4932096;29;20189;-80
2021/06/27 04:00:26;;;;;;;5.30;4.80;;;21.90;71.00;;;;;;4948458;29;20192;-80
2021/06/27 04:02:56;;;;;;;5.30;4.80;;;21.80;70.90;;;;;;4947891;29;20165;-81
2021/06/27 04:05:27;;;;;;;5.40;4.80;;;21.80;70.90;;;;;;4915829;29;20670;-81
2021/06/27 04:08:00;;;;;;;4.90;4.40;;;21.90;71.00;;;;;;4899896;29;20178;-81
2021/06/27 04:10:26;;;;;;;5.30;4.80;;;21.90;71.80;;;;;;4915896;29;20190;-81
2021/06/27 04:12:52;;;;;;;5.28;4.78;;;21.90;70.90;;;;;;4949126;29;20569;-81
2021/06/27 04:15:18;;;;;;;5.05;4.55;;;21.90;70.90;;;;;;4947929;29;20577;-81
2021/06/27 04:17:44;;;;;;;4.88;4.35;;;21.90;71.00;;;;;;4946967;29;20245;-80
2021/06/27 04:20:12;;;;;;;5.53;5.03;;;21.90;70.90;;;;;;4948122;29;20166;-81
2021/06/27 04:22:39;;;;;;;5.57;5.03;;;21.90;71.00;;;;;;4963559;29;20170;-81
2021/06/27 04:25:07;;;;;;;5.30;4.80;;;21.90;70.80;;;;;;4947397;29;20214;-81
2021/06/27 04:27:33;;;;;;;5.40;4.90;;;21.90;70.80;;;;;;4947765;29;20163;-81
2021/06/27 04:29:59;;;;;;;5.20;4.70;;;21.90;70.70;;;;;;4947247;29;20225;-81
2021/06/27 04:32:29;;;;;;;5.65;5.05;;;21.90;70.70;;;;;;4930563;29;20268;-81
2021/06/27 04:34:56;;;;;;;5.20;4.70;;;22.00;70.60;;;;;;4915233;29;20190;-82
2021/06/27 04:37:22;;;;;;;6.32;5.18;;;21.90;70.40;;;;;;4931033;29;20205;-81
2021/06/27 04:39:52;;;;;;;5.50;4.90;;;22.00;70.50;;;;;;4931019;29;20217;-81
2021/06/27 04:42:22;;;;;;;5.57;5.00;;;22.00;70.50;;;;;;4931355;29;20197;-81
2021/06/27 04:44:49;;;;;;;5.32;4.82;;;22.00;70.40;;;;;;4930828;29;20205;-81
2021/06/27 04:47:19;;;;;;;5.60;5.10;;;22.00;70.40;;;;;;4947514;29;20170;-81
2021/06/27 04:49:49;;;;;;;5.35;4.85;;;22.00;70.30;;;;;;4931485;29;20196;-82
2021/06/27 04:52:15;;;;;;;5.30;4.80;;;22.00;70.20;;;;;;4915233;29;20214;-81
2021/06/27 04:54:41;;;;;;;5.20;4.70;;;22.00;70.10;;;;;;4947125;29;20190;-81
2021/06/27 04:57:14;;;;;;;5.15;4.70;;;22.10;70.10;;;;;;4947056;29;20162;-81
2021/06/27 04:59:44;;;;;;;5.68;5.05;;;22.00;70.00;;;;;;4914349;29;20549;-81
2021/06/27 05:02:10;;;;;;;5.72;4.90;;;22.10;70.00;;;;;;4931312;29;20214;-82
2021/06/27 05:04:36;;;;;;;5.15;4.65;;;22.10;69.80;;;;;;4946892;29;20177;-81
2021/06/27 05:07:09;;;;;;;5.35;4.85;;;22.20;69.70;;;;;;4947945;29;20241;-81
2021/06/27 05:09:35;;;;;;;5.40;4.70;;;22.10;69.60;;;;;;4915079;29;20258;-81
2021/06/27 05:12:01;;;;;;;4.95;4.45;;;22.10;69.70;;;;;;4947242;29;20198;-81
2021/06/27 05:14:27;;;;;;;4.70;4.30;;;22.20;69.70;;;;;;4946946;29;20162;-81
2021/06/27 05:16:54;;;;;;;4.95;4.45;;;22.10;69.60;;;;;;4948756;29;20226;-81
2021/06/27 05:19:19;;;;;;;5.13;4.63;;;22.20;69.50;;;;;;4950473;29;20154;-82
2021/06/27 05:21:50;;;;;;;5.35;4.75;;;22.20;69.50;;;;;;4951505;29;20162;-81
2021/06/27 05:24:19;;;;;;;5.03;4.53;;;22.20;69.40;;;;;;4917051;29;20189;-81
2021/06/27 05:26:45;;;;;;;4.82;4.40;;;22.20;69.30;;;;;;4950169;29;20684;-81
2021/06/27 05:29:11;;;;;;;5.18;4.68;;;22.20;69.20;;;;;;4949234;29;20283;-82
2021/06/27 05:31:38;;;;;;;5.20;4.70;;;22.20;69.20;;;;;;4949618;29;20194;-82
2021/06/27 05:34:04;;;;;;;5.35;4.85;;;22.30;69.30;;;;;;4949642;29;20166;-82
2021/06/27 05:36:30;;;;;;;5.18;4.68;;;22.20;69.20;;;;;;4934052;29;20193;-81
2021/06/27 05:38:55;;;;;;;5.13;4.63;;;22.30;68.90;;;;;;4949647;29;20163;-81
2021/06/27 05:41:22;;;;;;;5.28;4.63;;;22.30;68.90;;;;;;4949475;29;20174;-82
2021/06/27 05:43:48;;;;;;;4.97;4.47;;;22.30;69.00;;;;;;4949825;29;20170;-81
2021/06/27 05:46:21;;;;;;;4.95;4.50;;;22.30;68.90;;;;;;4949610;29;20693;-81
2021/06/27 05:48:47;;;;;;;5.10;4.60;;;22.30;68.80;;;;;;4949089;29;20641;-81
2021/06/27 05:51:16;;;;;;;5.30;4.80;;;22.30;68.70;;;;;;4949223;29;20198;-81
2021/06/27 05:53:45;;;;;;;5.30;4.80;;;22.40;68.60;;;;;;4917444;29;20189;-82
2021/06/27 05:56:17;;;;;;;5.32;4.82;;;22.40;68.40;;;;;;4932317;29;20201;-82
2021/06/27 05:58:48;;;;;;;4.93;4.53;;;22.50;68.30;;;;;;4917318;29;20272;-81
2021/06/27 06:01:18;;;;;;;5.53;4.80;;;22.50;68.20;;;;;;4916847;29;20190;-81
2021/06/27 06:03:51;;;;;;;5.47;4.97;;;22.50;68.00;;;;;;4916568;29;20189;-81
2021/06/27 06:06:22;;;;;;;5.25;4.75;;;22.60;67.70;;;;;;4916626;29;20543;-81
2021/06/27 06:08:49;;;;;;;5.07;4.57;;;22.60;67.90;;;;;;4932612;29;20221;-82
2021/06/27 06:11:25;;;;;;;5.25;4.70;;;22.50;68.00;;;;;;4932490;29;20212;-81
2021/06/27 06:13:52;;;;;;;5.18;4.68;;;22.50;68.20;;;;;;4932425;29;20237;-82
2021/06/27 06:16:23;;;;;;;5.35;4.85;;;22.50;67.90;;;;;;4916879;29;20673;-81
2021/06/27 06:18:52;;;;;;;5.10;4.57;;;22.50;67.90;;;;;;4915952;29;20185;-81
2021/06/27 06:21:22;;;;;;;5.32;4.82;;;22.60;67.60;;;;;;4948827;29;20162;-81
2021/06/27 06:23:50;;;;;;;4.95;4.55;;;22.60;67.50;;;;;;4916254;29;20196;-81
2021/06/27 06:26:22;;;;;;;4.97;4.57;;;22.60;67.40;;;;;;4915963;29;20232;-82
2021/06/27 06:28:50;;;;;;;5.10;4.60;;;22.60;67.40;;;;;;4916248;29;20245;-81
2021/06/27 06:31:17;;;;;;;4.70;4.30;;;22.60;67.20;;;;;;4916393;29;20252;-81
2021/06/27 06:33:45;;;;;;;5.10;4.60;;;22.70;67.10;;;;;;4916055;29;20181;-81
2021/06/27 06:36:17;;;;;;;4.78;4.30;;;22.70;66.90;;;;;;4931625;29;20190;-81
2021/06/27 06:38:48;;;;;;;4.72;4.32;;;22.80;67.00;;;;;;4932035;29;20186;-81
2021/06/27 06:41:17;;;;;;;5.13;4.63;;;22.80;67.00;;;;;;4916379;29;20253;-81
2021/06/27 06:43:44;;;;;;;5.50;5.00;;;22.70;66.90;;;;;;4949113;29;20166;-81
2021/06/27 06:46:15;;;;;;;4.70;4.28;;;22.70;67.00;;;;;;4949340;29;20669;-81
2021/06/27 06:48:45;;;;;;;5.05;4.55;;;22.80;66.90;;;;;;4916052;29;20284;-81
2021/06/27 06:51:16;;;;;;;5.30;4.80;;;22.80;66.90;;;;;;4931726;29;20221;-81
2021/06/27 06:53:46;;;;;;;5.20;4.70;;;22.80;66.90;;;;;;4916311;29;20193;-81
2021/06/27 06:56:16;;;;;;;4.85;4.45;;;22.80;66.80;;;;;;4916315;29;20692;-81
2021/06/27 06:58:46;;;;;;;4.55;4.15;;;22.70;67.00;;;;;;4900573;29;20721;-81
2021/06/27 07:01:16;;;;;;;5.07;4.68;;;22.80;67.00;;;;;;4916029;29;20197;-81
2021/06/27 07:03:42;;;;;;;5.45;4.93;;;22.80;66.90;;;;;;4916291;29;20192;-81
2021/06/27 07:06:07;;;;;;;4.85;4.43;;;22.80;66.80;;;;;;4948010;29;20162;-81
2021/06/27 07:08:34;;;;;;;4.72;4.30;;;22.80;66.90;;;;;;4948436;29;20201;-82
2021/06/27 07:11:02;;;;;;;4.97;4.57;;;22.80;66.60;;;;;;4932092;29;20193;-81
2021/06/27 07:13:31;;;;;;;5.20;4.70;;;22.80;66.70;;;;;;4948649;29;20194;-80
2021/06/27 07:16:00;;;;;;;5.18;4.68;;;22.90;66.70;;;;;;4900103;29;20676;-81
2021/06/27 07:18:27;;;;;;;5.10;4.60;;;22.90;66.50;;;;;;4915931;29;20186;-81
2021/06/27 07:20:57;;;;;;;5.00;4.53;;;23.00;67.30;;;;;;4948370;29;20162;-81
2021/06/27 07:23:27;;;;;;;5.13;4.63;;;23.00;66.40;;;;;;4931824;29;20245;-81
2021/06/27 07:25:55;;;;;;;4.82;4.43;;;22.90;66.20;;;;;;4900332;29;20182;-81
2021/06/27 07:28:25;;;;;;;5.38;4.88;;;22.80;66.40;;;;;;4948648;29;20170;-81
2021/06/27 07:30:53;;;;;;;5.25;4.75;;;22.80;66.70;;;;;;4916058;29;20645;-81
2021/06/27 07:33:19;;;;;;;4.78;4.30;;;22.80;66.80;;;;;;4916148;29;20193;-80
2021/06/27 07:35:48;;;;;;;5.18;4.68;;;22.80;66.80;;;;;;4948858;29;20163;-81
2021/06/27 07:38:16;;;;;;;5.10;4.65;;;22.80;67.00;;;;;;4915883;29;20186;-79
2021/06/27 07:40:44;;;;;;;5.15;4.60;;;22.90;66.80;;;;;;4915185;29;20193;-81
2021/06/27 07:43:16;;;;;;;4.82;4.43;;;22.90;66.50;;;;;;4915898;29;20186;-81
2021/06/27 07:45:44;;;;;;;5.20;4.70;;;22.80;66.60;;;;;;4915436;29;20186;-81
2021/06/27 07:48:15;;;;;;;5.07;4.60;;;22.90;66.60;;;;;;4915867;29;20194;-81
2021/06/27 07:50:46;;;;;;;5.10;4.60;;;22.90;66.40;;;;;;4930896;29;20668;-80
2021/06/27 07:53:14;;;;;;;5.00;4.50;;;22.90;66.30;;;;;;4915658;29;20209;-81
2021/06/27 07:55:48;;;;;;;5.55;4.97;;;22.90;66.40;;;;;;4931468;29;20214;-81
2021/06/27 07:58:19;;;;;;;5.20;4.70;;;22.90;66.30;;;;;;4916582;29;20205;-81
2021/06/27 08:00:48;;;;;;;5.30;4.80;;;22.90;66.30;;;;;;4915782;29;20197;-81
2021/06/27 08:03:21;;;;;;;5.18;4.68;;;22.90;66.20;;;;;;4930314;29;20277;-81
2021/06/27 08:05:51;;;;;;;4.78;4.38;;;22.90;66.40;;;;;;4916427;29;20186;-81
2021/06/27 08:08:19;;;;;;;5.18;4.68;;;23.00;66.30;;;;;;4915487;29;20196;-80
2021/06/27 08:10:47;;;;;;;5.13;4.63;;;22.90;66.20;;;;;;4931504;29;20578;-81
2021/06/27 08:13:15;;;;;;;5.25;4.75;;;23.00;66.00;;;;;;4931119;29;20592;-81
2021/06/27 08:15:45;;;;;;;5.15;4.65;;;23.00;65.90;;;;;;4931808;29;20216;-81
2021/06/27 08:18:16;;;;;;;5.30;4.80;;;22.90;66.30;;;;;;4931257;29;20190;-81
2021/06/27 08:20:44;;;;;;;5.10;4.60;;;23.00;66.00;;;;;;4931194;29;20194;-81
2021/06/27 08:23:13;;;;;;;5.82;4.80;;;23.00;66.00;;;;;;4931358;29;20281;-81
2021/06/27 08:25:42;;;;;;;5.00;4.60;;;23.00;66.00;;;;;;4915879;29;20192;-81
2021/06/27 08:28:10;;;;;;;5.07;4.57;;;23.10;65.90;;;;;;4915470;29;20193;-81
2021/06/27 08:30:38;;;;;;;4.50;4.10;;;23.00;65.70;;;;;;4914817;29;20338;-81
2021/06/27 08:33:06;;;;;;;5.80;4.50;;;23.00;66.00;;;;;;4931468;29;20188;-81
2021/06/27 08:35:38;;;;;;;5.25;4.75;;;23.10;65.90;;;;;;4915351;29;20657;-81
2021/06/27 08:38:05;;;;;;;5.40;4.90;;;23.00;65.80;;;;;;4931063;29;20182;-81
2021/06/27 08:40:32;;;;;;;4.82;4.40;;;23.00;66.90;;;;;;4915554;29;20186;-81
2021/06/27 08:43:07;;;;;;;5.40;4.90;;;23.00;66.00;;;;;;4931800;29;20213;-80
2021/06/27 08:45:48;;;;;;;5.63;4.93;;;23.00;67.00;;;;;;4932089;29;20197;-81
2021/06/27 08:48:18;;;;;;;4.97;4.50;;;23.00;66.10;;;;;;4901420;29;20186;-81
2021/06/27 08:50:51;;;;;;;5.25;4.75;;;23.00;66.10;;;;;;4916292;29;20220;-81
2021/06/27 08:53:18;;;;;;;5.43;4.93;;;23.00;65.90;;;;;;4935114;29;20178;-81
2021/06/27 08:55:46;;;;;;;5.30;4.80;;;23.00;65.80;;;;;;4934809;29;20207;-80
2021/06/27 08:58:12;;;;;;;5.25;4.78;;;22.90;66.20;;;;;;4917673;29;20190;-81
2021/06/27 09:00:39;;;;;;;5.05;4.55;;;22.90;66.20;;;;;;4918012;29;20253;-80
2021/06/27 09:03:07;;;;;;;5.13;4.60;;;22.90;66.30;;;;;;4934817;29;20186;-81
2021/06/27 09:05:38;;;;;;;4.90;4.40;;;22.90;66.30;;;;;;4918576;29;20190;-81
2021/06/27 09:08:19;;;;;;;5.05;4.55;;;23.00;66.30;;;;;;4903639;29;20210;-81
2021/06/27 09:10:45;;;;;;;5.10;4.60;;;23.00;65.90;;;;;;4950638;29;20189;-81
2021/06/27 09:13:11;;;;;;;5.25;4.75;;;23.10;65.80;;;;;;4950904;29;20324;-81
2021/06/27 09:15:46;;;;;;;5.28;4.78;;;23.00;65.90;;;;;;4950738;29;20165;-81
2021/06/27 09:18:24;;;;;;;5.38;4.88;;;23.00;65.90;;;;;;4950642;29;20162;-81
2021/06/27 09:20:53;;;;;;;5.18;4.68;;;23.00;65.80;;;;;;4951054;29;20154;-81
2021/06/27 09:23:38;;;;;;;5.40;4.90;;;23.00;66.10;;;;;;4934636;29;20175;-80
2021/06/27 09:26:04;;;;;;;4.90;4.43;;;22.90;66.30;;;;;;4935077;29;20249;-81
2021/06/27 09:28:46;;;;;;;5.10;4.70;;;23.00;66.10;;;;;;4951399;29;20531;-80
2021/06/27 09:31:30;;;;;;;6.78;4.72;;;22.90;66.40;;;;;;4950570;29;20253;-81
2021/06/27 09:34:01;;;;;;;5.20;4.70;;;22.80;66.80;;;;;;4934827;29;20166;-81
2021/06/27 09:36:29;;;;;;;5.40;4.90;;;22.90;66.50;;;;;;4950937;29;20266;-81
2021/06/27 09:39:01;;;;;;;5.45;4.95;;;22.90;66.50;;;;;;4933959;29;20182;-81
2021/06/27 09:41:57;;;;;;;5.32;4.82;;;22.90;66.40;;;;;;4919639;29;20186;-80
2021/06/27 09:44:29;;;;;;;5.10;4.60;;;22.90;66.40;;;;;;4934189;29;20210;-80
2021/06/27 09:46:57;;;;;;;5.15;4.65;;;23.00;66.40;;;;;;4917533;29;20281;-80
2021/06/27 09:49:32;;;;;;;5.28;4.78;;;23.00;66.20;;;;;;4933601;29;20277;-80
2021/06/27 09:52:07;;;;;;;4.90;4.50;;;22.90;66.40;;;;;;4950655;29;20208;-80
2021/06/27 09:54:41;;;;;;;5.07;4.55;;;22.90;66.40;;;;;;4950552;29;20157;-81
2021/06/27 09:57:07;;;;;;;5.20;4.70;;;22.90;66.50;;;;;;4918741;29;20185;-80
2021/06/27 09:59:41;;;;;;;5.28;4.78;;;23.00;66.30;;;;;;4949556;29;20166;-80
2021/06/27 10:02:11;;;;;;;5.22;4.72;;;23.00;66.10;;;;;;4933463;29;20237;-80
2021/06/27 10:04:42;;;;;;;4.95;4.45;;;23.00;66.30;;;;;;4902398;29;20190;-80
2021/06/27 10:07:12;;;;;;;6.10;5.10;;;23.00;66.20;;;;;;4933836;29;20189;-80
2021/06/27 10:09:42;;;;;;;5.90;5.00;;;22.90;66.50;;;;;;4902518;29;20261;-80
2021/06/27 10:12:10;;;;;;;5.22;4.72;;;22.90;66.70;;;;;;4901780;29;20336;-81
2021/06/27 10:14:58;;;;;;;5.20;4.70;;;22.90;66.40;;;;;;4949401;29;20261;-80
2021/06/27 10:17:25;;;;;;;5.30;4.80;;;23.00;66.40;;;;;;4950437;29;20178;-80
2021/06/27 10:19:53;;;;;;;5.22;4.72;;;23.00;66.40;;;;;;4949580;29;20170;-81
2021/06/27 10:22:25;;;;;;;5.25;4.78;;;23.00;66.00;;;;;;4933910;29;20521;-80
2021/06/27 10:24:52;;;;;;;6.00;5.15;;;23.10;65.80;;;;;;4949853;29;20165;-80
2021/06/27 10:27:19;;;;;;;5.10;4.60;;;23.00;66.00;;;;;;4933888;29;20174;-81
2021/06/27 10:29:47;;;;;;;5.68;5.15;;;23.00;66.30;;;;;;4949036;29;20226;-80
2021/06/27 10:32:16;;;;;;;5.38;4.88;;;22.90;66.40;;;;;;4949291;29;20693;-80
2021/06/27 10:34:42;;;;;;;4.82;4.43;;;23.00;66.50;;;;;;4949665;29;20178;-81
2021/06/27 10:37:12;;;;;;;5.55;5.05;;;23.00;66.30;;;;;;4949763;29;20222;-80
2021/06/27 10:39:38;;;;;;;5.22;4.72;;;22.90;66.60;;;;;;4950349;29;20150;-80
2021/06/27 10:42:09;;;;;;;5.32;4.70;;;22.90;66.50;;;;;;4933641;29;20181;-80
2021/06/27 10:44:55;;;;;;;5.22;4.72;;;23.00;66.50;;;;;;4917110;29;20284;-80
2021/06/27 10:47:31;;;;;;;5.72;5.20;;;23.00;66.50;;;;;;4949450;29;20537;-80
2021/06/27 10:50:03;;;;;;;5.63;5.00;;;23.00;66.50;;;;;;4949563;29;20205;-80
2021/06/27 10:52:30;;;;;;;5.53;5.03;;;23.00;66.40;;;;;;4948642;29;20190;-80
2021/06/27 10:55:28;;;;;;;5.35;4.85;;;22.90;66.50;;;;;;4948916;29;20271;-80
2021/06/27 10:58:02;;;;;;;5.50;5.00;;;22.90;66.60;;;;;;4949936;29;20186;-80
2021/06/27 11:01:01;;;;;;;5.30;4.80;;;22.90;66.80;;;;;;4916948;29;20278;-80
2021/06/27 11:03:34;;;;;;;5.22;4.72;;;22.90;66.80;;;;;;4947924;29;20178;-80
2021/06/27 11:06:04;;;;;;;5.55;5.05;;;23.00;66.70;;;;;;4901559;29;20182;-80
2021/06/27 11:08:33;;;;;;;5.32;4.82;;;23.00;66.40;;;;;;4932584;29;20249;-80
2021/06/27 11:11:02;;;;;;;5.35;4.85;;;23.00;66.20;;;;;;4948718;29;20214;-80
2021/06/27 11:13:29;;;;;;;5.07;4.57;;;23.00;66.40;;;;;;4948634;29;20618;-80
2021/06/27 11:16:06;;;;;;;4.95;4.53;;;22.90;66.50;;;;;;4948304;29;20225;-80
2021/06/27 11:18:48;;;;;;;4.97;4.50;;;22.90;66.70;;;;;;4948745;29;20225;-80
2021/06/27 11:21:17;;;;;;;5.38;4.88;;;22.90;66.70;;;;;;4948508;29;20182;-80
2021/06/27 11:23:51;;;;;;;5.53;5.03;;;23.00;66.50;;;;;;4948716;29;20166;-80
2021/06/27 11:26:48;;;;;;;5.10;4.60;;;22.90;66.80;;;;;;4915751;29;20182;-80
2021/06/27 11:29:38;;;;;;;5.70;5.13;;;22.90;66.70;;;;;;4947716;29;20206;-80
2021/06/27 11:32:41;;;;;;;5.45;4.95;;;22.90;66.70;;;;;;4948440;29;20191;-80
2021/06/27 11:35:07;;;;;;;4.80;4.30;;;23.00;66.60;;;;;;4948531;29;20165;-80
2021/06/27 11:37:40;;;;;;;5.38;4.80;;;23.00;66.40;;;;;;4949053;29;20155;-80
2021/06/27 11:40:06;;;;;;;5.57;5.07;;;23.00;66.30;;;;;;4948748;29;20150;-80
2021/06/27 11:42:50;;;;;;;5.63;4.70;;;23.00;66.40;;;;;;4947341;29;20167;-80
2021/06/27 11:45:39;;;;;;;5.78;4.85;;;23.10;66.30;;;;;;4948532;29;20654;-80
2021/06/27 11:48:08;;;;;;;5.63;4.93;;;22.90;66.70;;;;;;4948750;29;20165;-80
2021/06/27 11:50:37;;;;;;;5.97;5.15;;;23.00;66.50;;;;;;4933188;29;20166;-80
2021/06/27 11:53:07;;;;;;;5.40;4.90;;;23.00;66.70;;;;;;4932905;29;20180;-80
2021/06/27 11:55:39;;;;;;;5.55;5.05;;;23.00;66.40;;;;;;4948220;29;20166;-80
2021/06/27 11:58:06;;;;;;;5.40;4.90;;;23.00;66.40;;;;;;4931401;29;20161;-80
2021/06/27 12:00:44;;;;;;;5.50;5.00;;;23.00;66.30;;;;;;4947310;29;20157;-80
2021/06/27 12:03:12;;;;;;;5.72;5.07;;;23.10;66.30;;;;;;4948101;29;20157;-80
2021/06/27 12:05:38;;;;;;;5.93;5.00;;;23.10;66.10;;;;;;4932002;29;20186;-80
2021/06/27 12:08:11;;;;;;;5.60;5.00;;;23.10;66.10;;;;;;4948018;29;20154;-80
2021/06/27 12:10:37;;;;;;;5.50;5.00;;;23.20;66.10;;;;;;4947980;29;20159;-80
2021/06/27 12:13:05;;;;;;;5.90;5.30;;;23.10;66.10;;;;;;4947807;29;20154;-80
2021/06/27 12:15:44;;;;;;;6.07;5.20;;;23.00;66.30;;;;;;4931623;29;20166;-80
2021/06/27 12:18:13;;;;;;;5.25;4.75;;;23.10;66.10;;;;;;4947933;29;20160;-80
2021/06/27 12:20:47;;;;;;;5.72;5.10;;;23.10;66.10;;;;;;4948331;29;20178;-80
2021/06/27 12:23:17;;;;;;;5.22;4.72;;;23.00;66.40;;;;;;4948513;29;20236;-80
2021/06/27 12:25:48;;;;;;;6.18;4.88;;;22.90;66.50;;;;;;4932602;29;20170;-80
2021/06/27 12:28:17;;;;;;;5.18;4.65;;;23.00;66.50;;;;;;4951685;29;20610;-80
2021/06/27 12:30:54;;;;;;;6.05;5.45;;;23.10;66.40;;;;;;4951913;29;20285;-80
2021/06/27 12:33:24;;;;;;;5.63;4.80;;;23.00;66.40;;;;;;4952253;29;20178;-80
2021/06/27 12:35:57;;;;;;;5.65;5.05;;;23.10;66.30;;;;;;4951371;29;20257;-80
2021/06/27 12:38:23;;;;;;;5.30;4.70;;;23.00;66.40;;;;;;4951639;29;20165;-80
2021/06/27 12:40:53;;;;;;;4.97;4.50;;;23.10;66.40;;;;;;4936695;29;20158;-80
2021/06/27 12:43:44;;;;;;;5.68;5.18;;;23.00;66.40;;;;;;4951841;29;20171;-80
2021/06/27 12:46:29;;;;;;;5.10;4.60;;;23.10;66.50;;;;;;4912580;29;20245;-80
2021/06/27 12:49:13;;;;;;;5.93;4.85;;;23.00;66.60;;;;;;4920348;29;20178;-80
2021/06/27 12:51:44;;;;;;;4.97;4.57;;;23.00;66.50;;;;;;4934935;29;20280;-80
2021/06/27 12:54:24;;;;;;;5.25;4.75;;;23.10;66.30;;;;;;4935264;29;20162;-80
2021/06/27 12:56:57;;;;;;;5.40;4.90;;;23.20;66.10;;;;;;4919989;29;20186;-80
2021/06/27 12:59:35;;;;;;;6.43;4.97;;;23.10;66.30;;;;;;4951672;29;20166;-80
2021/06/27 13:02:22;;;;;;;5.82;5.30;;;23.10;66.10;;;;;;4951872;29;20226;-80
2021/06/27 13:04:52;;;;;;;5.45;4.78;;;23.10;66.10;;;;;;4967511;29;20220;-80
2021/06/27 13:07:34;;;;;;;5.40;4.90;;;23.10;66.10;;;;;;4935074;29;20173;-80